sensor_id;sensor_type;location;lat;lon;timestamp;P1;durP1;ratioP1;P2;durP2;ratioP2
45011;SDS011;63444;48.148;11.542;2023-07-09T00:01:58;8.40;;;5.93;;
45011;SDS011;63444;48.148;11.542;2023-07-09T00:04:23;7.32;;;5.60;;
45011;SDS011;63444;48.148;11.542;2023-07-09T00:06:49;7.85;;;5.55;;
45011;SDS011;63444;48.148;11.542;2023-07-09T00:09:16;8.27;;;5.95;;
45011;SDS011;63444;48.148;11.542;2023-07-09T00:11:43;8.43;;;6.53;;
45011;SDS011;63444;48.148;11.542;2023-07-09T00:14:10;12.07;;;7.70;;
45011;SDS011;63444;48.148;11.542;2023-07-09T00:16:37;8.60;;;5.80;;
45011;SDS011;63444;48.148;11.542;2023-07-09T00:19:05;9.10;;;5.95;;
45011;SDS011;63444;48.148;11.542;2023-07-09T00:21:39;7.63;;;5.72;;
45011;SDS011;63444;48.148;11.542;2023-07-09T00:24:05;6.40;;;5.43;;
45011;SDS011;63444;48.148;11.542;2023-07-09T00:26:32;7.20;;;5.43;;
45011;SDS011;63444;48.148;11.542;2023-07-09T00:28:58;7.18;;;5.85;;
45011;SDS011;63444;48.148;11.542;2023-07-09T00:31:25;9.80;;;5.50;;
45011;SDS011;63444;48.148;11.542;2023-07-09T00:33:51;10.32;;;5.97;;
45011;SDS011;63444;48.148;11.542;2023-07-09T00:36:22;7.57;;;5.35;;
45011;SDS011;63444;48.148;11.542;2023-07-09T00:38:53;6.35;;;5.70;;
45011;SDS011;63444;48.148;11.542;2023-07-09T00:41:20;8.55;;;5.35;;
45011;SDS011;63444;48.148;11.542;2023-07-09T00:43:48;6.55;;;5.45;;
45011;SDS011;63444;48.148;11.542;2023-07-09T00:48:52;6.70;;;6.00;;
45011;SDS011;63444;48.148;11.542;2023-07-09T00:51:24;7.72;;;5.68;;
45011;SDS011;63444;48.148;11.542;2023-07-09T00:53:52;6.03;;;5.05;;
45011;SDS011;63444;48.148;11.542;2023-07-09T00:56:24;6.60;;;5.32;;
45011;SDS011;63444;48.148;11.542;2023-07-09T00:59:06;7.60;;;5.30;;
45011;SDS011;63444;48.148;11.542;2023-07-09T01:01:35;8.35;;;5.63;;
45011;SDS011;63444;48.148;11.542;2023-07-09T01:04:01;6.30;;;5.28;;
45011;SDS011;63444;48.148;11.542;2023-07-09T01:06:30;7.05;;;5.45;;
45011;SDS011;63444;48.148;11.542;2023-07-09T01:09:17;6.03;;;4.85;;
45011;SDS011;63444;48.148;11.542;2023-07-09T01:11:44;6.68;;;5.00;;
45011;SDS011;63444;48.148;11.542;2023-07-09T01:14:10;6.63;;;4.60;;
45011;SDS011;63444;48.148;11.542;2023-07-09T01:16:43;6.97;;;5.13;;
45011;SDS011;63444;48.148;11.542;2023-07-09T01:19:12;5.93;;;4.85;;
45011;SDS011;63444;48.148;11.542;2023-07-09T01:21:39;6.35;;;4.97;;
45011;SDS011;63444;48.148;11.542;2023-07-09T01:24:16;5.18;;;4.68;;
45011;SDS011;63444;48.148;11.542;2023-07-09T01:27:11;7.20;;;4.50;;
45011;SDS011;63444;48.148;11.542;2023-07-09T01:29:37;7.05;;;4.90;;
45011;SDS011;63444;48.148;11.542;2023-07-09T01:32:04;6.82;;;4.93;;
45011;SDS011;63444;48.148;11.542;2023-07-09T01:34:31;6.65;;;4.50;;
45011;SDS011;63444;48.148;11.542;2023-07-09T01:36:57;6.47;;;4.55;;
45011;SDS011;63444;48.148;11.542;2023-07-09T01:39:23;7.45;;;4.90;;
45011;SDS011;63444;48.148;11.542;2023-07-09T01:41:50;7.07;;;5.00;;
45011;SDS011;63444;48.148;11.542;2023-07-09T01:44:16;5.38;;;4.53;;
45011;SDS011;63444;48.148;11.542;2023-07-09T01:46:41;5.50;;;4.47;;
45011;SDS011;63444;48.148;11.542;2023-07-09T01:49:07;5.70;;;4.47;;
45011;SDS011;63444;48.148;11.542;2023-07-09T01:51:34;5.60;;;4.35;;
45011;SDS011;63444;48.148;11.542;2023-07-09T01:54:01;7.72;;;5.22;;
45011;SDS011;63444;48.148;11.542;2023-07-09T01:56:27;7.05;;;4.45;;
45011;SDS011;63444;48.148;11.542;2023-07-09T01:58:54;5.45;;;4.72;;
45011;SDS011;63444;48.148;11.542;2023-07-09T02:01:25;7.03;;;4.72;;
45011;SDS011;63444;48.148;11.542;2023-07-09T02:03:54;6.50;;;5.22;;
45011;SDS011;63444;48.148;11.542;2023-07-09T02:06:20;6.97;;;4.90;;
45011;SDS011;63444;48.148;11.542;2023-07-09T02:08:49;6.65;;;4.95;;
45011;SDS011;63444;48.148;11.542;2023-07-09T02:11:15;7.75;;;4.70;;
45011;SDS011;63444;48.148;11.542;2023-07-09T02:13:40;6.15;;;4.70;;
45011;SDS011;63444;48.148;11.542;2023-07-09T02:16:06;5.38;;;4.20;;
45011;SDS011;63444;48.148;11.542;2023-07-09T02:18:31;5.45;;;4.35;;
45011;SDS011;63444;48.148;11.542;2023-07-09T02:20:57;6.55;;;4.45;;
45011;SDS011;63444;48.148;11.542;2023-07-09T02:23:26;4.55;;;3.90;;
45011;SDS011;63444;48.148;11.542;2023-07-09T02:25:53;5.70;;;4.05;;
45011;SDS011;63444;48.148;11.542;2023-07-09T02:28:18;4.55;;;4.00;;
45011;SDS011;63444;48.148;11.542;2023-07-09T02:30:44;5.15;;;4.32;;
45011;SDS011;63444;48.148;11.542;2023-07-09T02:33:10;6.82;;;4.22;;
45011;SDS011;63444;48.148;11.542;2023-07-09T02:35:35;5.40;;;4.47;;
45011;SDS011;63444;48.148;11.542;2023-07-09T02:38:02;6.55;;;4.68;;
45011;SDS011;63444;48.148;11.542;2023-07-09T02:40:28;6.05;;;4.47;;
45011;SDS011;63444;48.148;11.542;2023-07-09T02:42:54;6.63;;;4.72;;
45011;SDS011;63444;48.148;11.542;2023-07-09T02:45:20;6.25;;;4.30;;
45011;SDS011;63444;48.148;11.542;2023-07-09T02:47:46;6.45;;;4.85;;
45011;SDS011;63444;48.148;11.542;2023-07-09T02:50:12;6.57;;;4.72;;
45011;SDS011;63444;48.148;11.542;2023-07-09T02:52:37;5.80;;;4.18;;
45011;SDS011;63444;48.148;11.542;2023-07-09T02:55:03;7.40;;;4.50;;
45011;SDS011;63444;48.148;11.542;2023-07-09T02:57:29;4.43;;;4.00;;
45011;SDS011;63444;48.148;11.542;2023-07-09T02:59:54;6.88;;;4.25;;
45011;SDS011;63444;48.148;11.542;2023-07-09T03:02:20;6.53;;;4.50;;
45011;SDS011;63444;48.148;11.542;2023-07-09T03:04:46;5.78;;;4.20;;
45011;SDS011;63444;48.148;11.542;2023-07-09T03:07:11;4.40;;;4.00;;
45011;SDS011;63444;48.148;11.542;2023-07-09T03:09:37;7.32;;;4.40;;
45011;SDS011;63444;48.148;11.542;2023-07-09T03:12:03;4.95;;;3.85;;
45011;SDS011;63444;48.148;11.542;2023-07-09T03:14:28;6.05;;;4.35;;
45011;SDS011;63444;48.148;11.542;2023-07-09T03:16:54;5.05;;;4.32;;
45011;SDS011;63444;48.148;11.542;2023-07-09T03:19:20;5.82;;;4.50;;
45011;SDS011;63444;48.148;11.542;2023-07-09T03:21:47;7.30;;;4.70;;
45011;SDS011;63444;48.148;11.542;2023-07-09T03:24:12;5.43;;;4.40;;
45011;SDS011;63444;48.148;11.542;2023-07-09T03:26:40;5.03;;;4.00;;
45011;SDS011;63444;48.148;11.542;2023-07-09T03:29:05;6.15;;;4.50;;
45011;SDS011;63444;48.148;11.542;2023-07-09T03:31:31;4.35;;;3.95;;
45011;SDS011;63444;48.148;11.542;2023-07-09T03:34:00;5.68;;;4.35;;
45011;SDS011;63444;48.148;11.542;2023-07-09T03:36:25;5.85;;;4.28;;
45011;SDS011;63444;48.148;11.542;2023-07-09T03:38:51;6.20;;;4.10;;
45011;SDS011;63444;48.148;11.542;2023-07-09T03:41:17;7.22;;;4.63;;
45011;SDS011;63444;48.148;11.542;2023-07-09T03:43:43;5.53;;;4.20;;
45011;SDS011;63444;48.148;11.542;2023-07-09T03:46:08;5.25;;;3.95;;
45011;SDS011;63444;48.148;11.542;2023-07-09T03:48:34;5.47;;;4.60;;
45011;SDS011;63444;48.148;11.542;2023-07-09T03:51:00;4.82;;;3.92;;
45011;SDS011;63444;48.148;11.542;2023-07-09T03:53:25;6.63;;;4.13;;
45011;SDS011;63444;48.148;11.542;2023-07-09T03:55:52;6.63;;;4.50;;
45011;SDS011;63444;48.148;11.542;2023-07-09T03:58:19;6.53;;;4.10;;
45011;SDS011;63444;48.148;11.542;2023-07-09T04:00:45;4.95;;;3.95;;
45011;SDS011;63444;48.148;11.542;2023-07-09T04:03:11;6.43;;;4.60;;
45011;SDS011;63444;48.148;11.542;2023-07-09T04:05:36;6.30;;;4.50;;
45011;SDS011;63444;48.148;11.542;2023-07-09T04:08:02;4.95;;;4.38;;
45011;SDS011;63444;48.148;11.542;2023-07-09T04:10:29;4.88;;;3.65;;
45011;SDS011;63444;48.148;11.542;2023-07-09T04:12:55;5.68;;;4.20;;
45011;SDS011;63444;48.148;11.542;2023-07-09T04:15:20;4.85;;;4.13;;
45011;SDS011;63444;48.148;11.542;2023-07-09T04:17:46;4.60;;;3.80;;
45011;SDS011;63444;48.148;11.542;2023-07-09T04:20:11;5.78;;;4.15;;
45011;SDS011;63444;48.148;11.542;2023-07-09T04:22:38;6.05;;;4.00;;
45011;SDS011;63444;48.148;11.542;2023-07-09T04:25:05;5.68;;;4.28;;
45011;SDS011;63444;48.148;11.542;2023-07-09T04:27:32;4.75;;;3.78;;
45011;SDS011;63444;48.148;11.542;2023-07-09T04:29:59;5.07;;;4.05;;
45011;SDS011;63444;48.148;11.542;2023-07-09T04:32:24;4.95;;;4.00;;
45011;SDS011;63444;48.148;11.542;2023-07-09T04:34:50;5.07;;;3.47;;
45011;SDS011;63444;48.148;11.542;2023-07-09T04:37:16;5.18;;;4.07;;
45011;SDS011;63444;48.148;11.542;2023-07-09T04:39:44;4.00;;;3.58;;
45011;SDS011;63444;48.148;11.542;2023-07-09T04:42:12;4.93;;;4.00;;
45011;SDS011;63444;48.148;11.542;2023-07-09T04:44:40;4.43;;;3.80;;
45011;SDS011;63444;48.148;11.542;2023-07-09T04:47:06;4.82;;;3.90;;
45011;SDS011;63444;48.148;11.542;2023-07-09T04:49:32;4.72;;;3.40;;
45011;SDS011;63444;48.148;11.542;2023-07-09T04:51:57;4.93;;;3.85;;
45011;SDS011;63444;48.148;11.542;2023-07-09T04:54:24;5.25;;;3.83;;
45011;SDS011;63444;48.148;11.542;2023-07-09T04:56:50;4.68;;;3.78;;
45011;SDS011;63444;48.148;11.542;2023-07-09T04:59:16;6.25;;;4.20;;
45011;SDS011;63444;48.148;11.542;2023-07-09T05:01:41;5.30;;;3.88;;
45011;SDS011;63444;48.148;11.542;2023-07-09T05:04:07;3.97;;;3.50;;
45011;SDS011;63444;48.148;11.542;2023-07-09T05:06:33;5.63;;;4.00;;
45011;SDS011;63444;48.148;11.542;2023-07-09T05:08:59;5.90;;;4.00;;
45011;SDS011;63444;48.148;11.542;2023-07-09T05:11:25;5.72;;;3.80;;
45011;SDS011;63444;48.148;11.542;2023-07-09T05:13:50;5.03;;;3.80;;
45011;SDS011;63444;48.148;11.542;2023-07-09T05:16:16;4.75;;;3.63;;
45011;SDS011;63444;48.148;11.542;2023-07-09T05:18:42;5.75;;;3.70;;
45011;SDS011;63444;48.148;11.542;2023-07-09T05:21:08;4.65;;;3.58;;
45011;SDS011;63444;48.148;11.542;2023-07-09T05:23:33;4.57;;;3.95;;
45011;SDS011;63444;48.148;11.542;2023-07-09T05:26:00;4.22;;;3.65;;
45011;SDS011;63444;48.148;11.542;2023-07-09T05:28:26;3.97;;;3.33;;
45011;SDS011;63444;48.148;11.542;2023-07-09T05:30:53;4.40;;;3.40;;
45011;SDS011;63444;48.148;11.542;2023-07-09T05:33:18;5.38;;;3.80;;
45011;SDS011;63444;48.148;11.542;2023-07-09T05:35:45;5.25;;;3.40;;
45011;SDS011;63444;48.148;11.542;2023-07-09T05:38:14;6.07;;;3.80;;
45011;SDS011;63444;48.148;11.542;2023-07-09T05:40:40;3.72;;;3.25;;
45011;SDS011;63444;48.148;11.542;2023-07-09T05:43:07;5.53;;;3.22;;
45011;SDS011;63444;48.148;11.542;2023-07-09T05:45:33;4.25;;;3.35;;
45011;SDS011;63444;48.148;11.542;2023-07-09T05:47:58;6.15;;;3.13;;
45011;SDS011;63444;48.148;11.542;2023-07-09T05:50:25;5.20;;;3.28;;
45011;SDS011;63444;48.148;11.542;2023-07-09T05:52:52;4.32;;;3.38;;
45011;SDS011;63444;48.148;11.542;2023-07-09T05:55:18;3.90;;;3.00;;
45011;SDS011;63444;48.148;11.542;2023-07-09T05:57:43;5.32;;;3.13;;
45011;SDS011;63444;48.148;11.542;2023-07-09T06:00:09;5.00;;;3.25;;
45011;SDS011;63444;48.148;11.542;2023-07-09T06:02:36;8.68;;;3.88;;
45011;SDS011;63444;48.148;11.542;2023-07-09T06:05:03;4.55;;;3.13;;
45011;SDS011;63444;48.148;11.542;2023-07-09T06:07:29;4.68;;;3.15;;
45011;SDS011;63444;48.148;11.542;2023-07-09T06:09:55;5.43;;;3.33;;
45011;SDS011;63444;48.148;11.542;2023-07-09T06:12:20;3.10;;;2.80;;
45011;SDS011;63444;48.148;11.542;2023-07-09T06:14:46;4.30;;;3.25;;
45011;SDS011;63444;48.148;11.542;2023-07-09T06:17:12;3.63;;;3.20;;
45011;SDS011;63444;48.148;11.542;2023-07-09T06:19:38;3.92;;;2.95;;
45011;SDS011;63444;48.148;11.542;2023-07-09T06:22:04;3.33;;;3.03;;
45011;SDS011;63444;48.148;11.542;2023-07-09T06:24:30;3.05;;;2.75;;
45011;SDS011;63444;48.148;11.542;2023-07-09T06:26:55;4.28;;;2.90;;
45011;SDS011;63444;48.148;11.542;2023-07-09T06:29:21;4.93;;;2.85;;
45011;SDS011;63444;48.148;11.542;2023-07-09T06:31:47;4.70;;;2.88;;
45011;SDS011;63444;48.148;11.542;2023-07-09T06:34:12;3.92;;;2.97;;
45011;SDS011;63444;48.148;11.542;2023-07-09T06:36:38;4.50;;;3.15;;
45011;SDS011;63444;48.148;11.542;2023-07-09T06:39:04;3.65;;;2.78;;
45011;SDS011;63444;48.148;11.542;2023-07-09T06:41:30;3.13;;;2.60;;
45011;SDS011;63444;48.148;11.542;2023-07-09T06:43:57;3.45;;;2.80;;
45011;SDS011;63444;48.148;11.542;2023-07-09T06:46:23;3.13;;;2.72;;
45011;SDS011;63444;48.148;11.542;2023-07-09T06:48:48;4.20;;;2.85;;
45011;SDS011;63444;48.148;11.542;2023-07-09T06:51:14;3.35;;;2.47;;
45011;SDS011;63444;48.148;11.542;2023-07-09T06:53:39;3.80;;;2.70;;
45011;SDS011;63444;48.148;11.542;2023-07-09T06:56:05;4.95;;;2.92;;
45011;SDS011;63444;48.148;11.542;2023-07-09T06:58:31;3.20;;;2.90;;
45011;SDS011;63444;48.148;11.542;2023-07-09T07:01:00;4.18;;;2.78;;
45011;SDS011;63444;48.148;11.542;2023-07-09T07:03:28;6.72;;;2.67;;
45011;SDS011;63444;48.148;11.542;2023-07-09T07:05:54;4.07;;;2.70;;
45011;SDS011;63444;48.148;11.542;2023-07-09T07:08:21;5.07;;;2.80;;
45011;SDS011;63444;48.148;11.542;2023-07-09T07:10:49;4.20;;;2.45;;
45011;SDS011;63444;48.148;11.542;2023-07-09T07:13:15;3.47;;;2.55;;
45011;SDS011;63444;48.148;11.542;2023-07-09T07:15:44;3.63;;;2.40;;
45011;SDS011;63444;48.148;11.542;2023-07-09T07:18:13;4.55;;;2.97;;
45011;SDS011;63444;48.148;11.542;2023-07-09T07:20:39;4.93;;;2.85;;
45011;SDS011;63444;48.148;11.542;2023-07-09T07:23:04;3.95;;;2.50;;
45011;SDS011;63444;48.148;11.542;2023-07-09T07:25:31;2.97;;;2.38;;
45011;SDS011;63444;48.148;11.542;2023-07-09T07:27:57;2.58;;;2.38;;
45011;SDS011;63444;48.148;11.542;2023-07-09T07:30:23;2.75;;;2.55;;
45011;SDS011;63444;48.148;11.542;2023-07-09T07:32:48;3.88;;;2.90;;
45011;SDS011;63444;48.148;11.542;2023-07-09T07:35:14;3.10;;;2.35;;
45011;SDS011;63444;48.148;11.542;2023-07-09T07:37:41;3.75;;;2.80;;
45011;SDS011;63444;48.148;11.542;2023-07-09T07:40:07;3.00;;;2.70;;
45011;SDS011;63444;48.148;11.542;2023-07-09T07:42:33;3.20;;;2.72;;
45011;SDS011;63444;48.148;11.542;2023-07-09T07:44:59;4.07;;;2.83;;
45011;SDS011;63444;48.148;11.542;2023-07-09T07:47:25;5.47;;;2.60;;
45011;SDS011;63444;48.148;11.542;2023-07-09T07:49:52;3.15;;;2.80;;
45011;SDS011;63444;48.148;11.542;2023-07-09T07:52:18;3.63;;;2.85;;
45011;SDS011;63444;48.148;11.542;2023-07-09T07:54:45;6.65;;;3.10;;
45011;SDS011;63444;48.148;11.542;2023-07-09T07:57:11;4.93;;;3.28;;
45011;SDS011;63444;48.148;11.542;2023-07-09T07:59:37;3.58;;;3.08;;
45011;SDS011;63444;48.148;11.542;2023-07-09T08:02:03;4.40;;;2.92;;
45011;SDS011;63444;48.148;11.542;2023-07-09T08:04:30;4.63;;;2.95;;
45011;SDS011;63444;48.148;11.542;2023-07-09T08:06:56;5.95;;;3.22;;
45011;SDS011;63444;48.148;11.542;2023-07-09T08:09:22;4.80;;;3.58;;
45011;SDS011;63444;48.148;11.542;2023-07-09T08:11:47;3.50;;;3.10;;
45011;SDS011;63444;48.148;11.542;2023-07-09T08:14:14;4.60;;;3.30;;
45011;SDS011;63444;48.148;11.542;2023-07-09T08:16:40;3.60;;;3.08;;
45011;SDS011;63444;48.148;11.542;2023-07-09T08:19:06;6.05;;;3.55;;
45011;SDS011;63444;48.148;11.542;2023-07-09T08:21:32;5.38;;;3.42;;
45011;SDS011;63444;48.148;11.542;2023-07-09T08:23:57;5.45;;;3.40;;
45011;SDS011;63444;48.148;11.542;2023-07-09T08:26:23;3.20;;;2.90;;
45011;SDS011;63444;48.148;11.542;2023-07-09T08:28:49;4.47;;;3.30;;
45011;SDS011;63444;48.148;11.542;2023-07-09T08:31:15;3.30;;;2.97;;
45011;SDS011;63444;48.148;11.542;2023-07-09T08:33:41;3.42;;;3.13;;
45011;SDS011;63444;48.148;11.542;2023-07-09T08:36:06;5.65;;;3.45;;
45011;SDS011;63444;48.148;11.542;2023-07-09T08:38:32;3.72;;;3.25;;
45011;SDS011;63444;48.148;11.542;2023-07-09T08:46:01;3.67;;;3.20;;
45011;SDS011;63444;48.148;11.542;2023-07-09T08:48:47;3.15;;;2.85;;
45011;SDS011;63444;48.148;11.542;2023-07-09T08:51:17;3.97;;;3.22;;
45011;SDS011;63444;48.148;11.542;2023-07-09T08:53:57;3.97;;;3.10;;
45011;SDS011;63444;48.148;11.542;2023-07-09T08:56:24;5.40;;;3.17;;
45011;SDS011;63444;48.148;11.542;2023-07-09T08:58:50;3.60;;;3.00;;
45011;SDS011;63444;48.148;11.542;2023-07-09T09:01:49;6.05;;;3.30;;
45011;SDS011;63444;48.148;11.542;2023-07-09T09:04:20;4.57;;;3.42;;
45011;SDS011;63444;48.148;11.542;2023-07-09T09:06:51;3.83;;;2.97;;
45011;SDS011;63444;48.148;11.542;2023-07-09T09:09:28;5.78;;;2.92;;
45011;SDS011;63444;48.148;11.542;2023-07-09T09:14:39;6.25;;;3.65;;
45011;SDS011;63444;48.148;11.542;2023-07-09T09:17:17;6.22;;;3.03;;
45011;SDS011;63444;48.148;11.542;2023-07-09T09:19:45;3.65;;;2.83;;
45011;SDS011;63444;48.148;11.542;2023-07-09T09:22:21;4.47;;;3.08;;
45011;SDS011;63444;48.148;11.542;2023-07-09T09:25:01;4.47;;;3.03;;
45011;SDS011;63444;48.148;11.542;2023-07-09T09:27:41;5.13;;;3.58;;
45011;SDS011;63444;48.148;11.542;2023-07-09T09:30:10;5.90;;;3.30;;
45011;SDS011;63444;48.148;11.542;2023-07-09T09:32:44;3.85;;;3.15;;
45011;SDS011;63444;48.148;11.542;2023-07-09T09:35:16;3.92;;;3.30;;
45011;SDS011;63444;48.148;11.542;2023-07-09T09:37:53;5.68;;;3.40;;
45011;SDS011;63444;48.148;11.542;2023-07-09T09:40:20;6.13;;;3.35;;
45011;SDS011;63444;48.148;11.542;2023-07-09T09:42:48;5.00;;;3.38;;
45011;SDS011;63444;48.148;11.542;2023-07-09T09:45:17;11.10;;;3.60;;
45011;SDS011;63444;48.148;11.542;2023-07-09T09:47:44;3.97;;;3.10;;
45011;SDS011;63444;48.148;11.542;2023-07-09T09:50:21;4.82;;;3.33;;
45011;SDS011;63444;48.148;11.542;2023-07-09T09:52:48;6.43;;;3.55;;
45011;SDS011;63444;48.148;11.542;2023-07-09T09:57:47;6.20;;;3.15;;
45011;SDS011;63444;48.148;11.542;2023-07-09T10:00:18;6.88;;;3.30;;
45011;SDS011;63444;48.148;11.542;2023-07-09T10:02:48;4.95;;;3.28;;
45011;SDS011;63444;48.148;11.542;2023-07-09T10:05:14;4.20;;;3.28;;
45011;SDS011;63444;48.148;11.542;2023-07-09T10:07:53;7.65;;;3.28;;
45011;SDS011;63444;48.148;11.542;2023-07-09T10:10:33;4.70;;;3.15;;
45011;SDS011;63444;48.148;11.542;2023-07-09T10:13:07;4.20;;;3.20;;
45011;SDS011;63444;48.148;11.542;2023-07-09T10:15:51;3.35;;;2.50;;
45011;SDS011;63444;48.148;11.542;2023-07-09T10:24:12;3.50;;;3.10;;
45011;SDS011;63444;48.148;11.542;2023-07-09T10:28:03;3.60;;;2.85;;
45011;SDS011;63444;48.148;11.542;2023-07-09T10:30:13;4.38;;;2.97;;
45011;SDS011;63444;48.148;11.542;2023-07-09T10:33:09;7.85;;;2.90;;
45011;SDS011;63444;48.148;11.542;2023-07-09T10:35:38;3.92;;;2.67;;
45011;SDS011;63444;48.148;11.542;2023-07-09T10:38:24;3.53;;;2.83;;
45011;SDS011;63444;48.148;11.542;2023-07-09T10:40:54;4.45;;;2.83;;
45011;SDS011;63444;48.148;11.542;2023-07-09T10:43:24;4.03;;;2.85;;
45011;SDS011;63444;48.148;11.542;2023-07-09T10:46:11;7.32;;;2.95;;
45011;SDS011;63444;48.148;11.542;2023-07-09T10:48:42;5.25;;;3.20;;
45011;SDS011;63444;48.148;11.542;2023-07-09T10:53:59;4.78;;;3.10;;
45011;SDS011;63444;48.148;11.542;2023-07-09T10:56:47;4.53;;;2.78;;
45011;SDS011;63444;48.148;11.542;2023-07-09T10:59:21;5.60;;;2.80;;
45011;SDS011;63444;48.148;11.542;2023-07-09T11:02:44;6.13;;;3.13;;
45011;SDS011;63444;48.148;11.542;2023-07-09T11:07:18;3.00;;;2.70;;
45011;SDS011;63444;48.148;11.542;2023-07-09T11:10:18;4.32;;;3.30;;
45011;SDS011;63444;48.148;11.542;2023-07-09T11:12:55;5.20;;;2.90;;
45011;SDS011;63444;48.148;11.542;2023-07-09T11:15:28;4.07;;;2.92;;
45011;SDS011;63444;48.148;11.542;2023-07-09T11:18:01;5.25;;;2.97;;
45011;SDS011;63444;48.148;11.542;2023-07-09T11:20:32;4.78;;;3.13;;
45011;SDS011;63444;48.148;11.542;2023-07-09T11:23:04;3.03;;;2.80;;
45011;SDS011;63444;48.148;11.542;2023-07-09T11:26:12;4.13;;;2.97;;
45011;SDS011;63444;48.148;11.542;2023-07-09T11:28:51;4.15;;;2.38;;
45011;SDS011;63444;48.148;11.542;2023-07-09T11:31:36;5.82;;;2.92;;
45011;SDS011;63444;48.148;11.542;2023-07-09T11:34:08;4.65;;;2.92;;
45011;SDS011;63444;48.148;11.542;2023-07-09T11:36:49;4.40;;;2.80;;
45011;SDS011;63444;48.148;11.542;2023-07-09T11:39:30;4.95;;;2.88;;
45011;SDS011;63444;48.148;11.542;2023-07-09T11:47:34;5.18;;;3.13;;
45011;SDS011;63444;48.148;11.542;2023-07-09T11:50:27;5.93;;;3.10;;
45011;SDS011;63444;48.148;11.542;2023-07-09T11:52:55;6.53;;;3.65;;
45011;SDS011;63444;48.148;11.542;2023-07-09T11:57:59;4.93;;;3.38;;
45011;SDS011;63444;48.148;11.542;2023-07-09T12:00:30;6.93;;;3.25;;
45011;SDS011;63444;48.148;11.542;2023-07-09T12:03:26;4.47;;;3.15;;
45011;SDS011;63444;48.148;11.542;2023-07-09T12:06:04;6.47;;;3.20;;
45011;SDS011;63444;48.148;11.542;2023-07-09T12:08:42;9.40;;;3.40;;
45011;SDS011;63444;48.148;11.542;2023-07-09T12:11:45;3.70;;;3.30;;
45011;SDS011;63444;48.148;11.542;2023-07-09T12:14:11;5.72;;;3.08;;
45011;SDS011;63444;48.148;11.542;2023-07-09T12:16:43;4.65;;;3.00;;
45011;SDS011;63444;48.148;11.542;2023-07-09T12:19:11;4.18;;;3.17;;
45011;SDS011;63444;48.148;11.542;2023-07-09T12:21:39;4.35;;;3.10;;
45011;SDS011;63444;48.148;11.542;2023-07-09T12:24:28;4.90;;;2.85;;
45011;SDS011;63444;48.148;11.542;2023-07-09T12:27:01;5.07;;;2.97;;
45011;SDS011;63444;48.148;11.542;2023-07-09T12:29:29;3.97;;;3.22;;
45011;SDS011;63444;48.148;11.542;2023-07-09T12:31:57;4.72;;;3.10;;
45011;SDS011;63444;48.148;11.542;2023-07-09T12:34:23;6.10;;;3.42;;
45011;SDS011;63444;48.148;11.542;2023-07-09T12:36:50;6.65;;;3.45;;
45011;SDS011;63444;48.148;11.542;2023-07-09T12:39:21;4.60;;;3.47;;
45011;SDS011;63444;48.148;11.542;2023-07-09T12:41:49;5.78;;;3.40;;
45011;SDS011;63444;48.148;11.542;2023-07-09T12:44:19;4.60;;;2.90;;
45011;SDS011;63444;48.148;11.542;2023-07-09T12:46:47;5.50;;;3.17;;
45011;SDS011;63444;48.148;11.542;2023-07-09T12:49:20;5.90;;;3.17;;
45011;SDS011;63444;48.148;11.542;2023-07-09T12:51:51;5.60;;;3.30;;
45011;SDS011;63444;48.148;11.542;2023-07-09T12:54:20;4.45;;;3.28;;
45011;SDS011;63444;48.148;11.542;2023-07-09T12:56:46;4.45;;;3.10;;
45011;SDS011;63444;48.148;11.542;2023-07-09T13:02:00;5.13;;;3.05;;
45011;SDS011;63444;48.148;11.542;2023-07-09T13:04:30;4.18;;;3.15;;
45011;SDS011;63444;48.148;11.542;2023-07-09T13:06:57;5.85;;;2.97;;
45011;SDS011;63444;48.148;11.542;2023-07-09T13:09:24;3.80;;;2.97;;
45011;SDS011;63444;48.148;11.542;2023-07-09T13:11:51;3.97;;;3.10;;
45011;SDS011;63444;48.148;11.542;2023-07-09T13:14:21;5.88;;;3.22;;
45011;SDS011;63444;48.148;11.542;2023-07-09T13:16:51;4.90;;;3.50;;
45011;SDS011;63444;48.148;11.542;2023-07-09T13:19:17;6.45;;;3.15;;
45011;SDS011;63444;48.148;11.542;2023-07-09T13:21:43;3.83;;;2.90;;
45011;SDS011;63444;48.148;11.542;2023-07-09T13:24:29;6.00;;;3.10;;
45011;SDS011;63444;48.148;11.542;2023-07-09T13:26:57;4.25;;;3.28;;
45011;SDS011;63444;48.148;11.542;2023-07-09T13:29:24;3.47;;;3.15;;
45011;SDS011;63444;48.148;11.542;2023-07-09T13:31:50;5.45;;;3.30;;
45011;SDS011;63444;48.148;11.542;2023-07-09T13:34:22;4.82;;;2.95;;
45011;SDS011;63444;48.148;11.542;2023-07-09T13:36:49;3.83;;;2.85;;
45011;SDS011;63444;48.148;11.542;2023-07-09T13:39:18;4.63;;;3.30;;
45011;SDS011;63444;48.148;11.542;2023-07-09T13:41:45;4.07;;;2.90;;
45011;SDS011;63444;48.148;11.542;2023-07-09T13:44:13;4.07;;;2.80;;
45011;SDS011;63444;48.148;11.542;2023-07-09T13:46:44;4.78;;;3.25;;
45011;SDS011;63444;48.148;11.542;2023-07-09T13:49:17;4.25;;;2.78;;
45011;SDS011;63444;48.148;11.542;2023-07-09T13:51:47;5.82;;;3.05;;
45011;SDS011;63444;48.148;11.542;2023-07-09T13:54:17;5.18;;;3.10;;
45011;SDS011;63444;48.148;11.542;2023-07-09T13:56:48;4.72;;;3.20;;
45011;SDS011;63444;48.148;11.542;2023-07-09T13:59:16;5.75;;;3.10;;
45011;SDS011;63444;48.148;11.542;2023-07-09T14:01:44;4.30;;;2.92;;
45011;SDS011;63444;48.148;11.542;2023-07-09T14:04:12;4.18;;;3.03;;
45011;SDS011;63444;48.148;11.542;2023-07-09T14:06:39;5.10;;;3.20;;
45011;SDS011;63444;48.148;11.542;2023-07-09T14:09:05;4.07;;;3.10;;
45011;SDS011;63444;48.148;11.542;2023-07-09T14:11:31;6.32;;;2.95;;
45011;SDS011;63444;48.148;11.542;2023-07-09T14:13:57;5.18;;;3.58;;
45011;SDS011;63444;48.148;11.542;2023-07-09T14:16:23;3.50;;;2.97;;
45011;SDS011;63444;48.148;11.542;2023-07-09T14:18:49;4.47;;;3.50;;
45011;SDS011;63444;48.148;11.542;2023-07-09T14:21:20;5.40;;;3.55;;
45011;SDS011;63444;48.148;11.542;2023-07-09T14:23:54;3.45;;;2.80;;
45011;SDS011;63444;48.148;11.542;2023-07-09T14:26:19;5.00;;;2.80;;
45011;SDS011;63444;48.148;11.542;2023-07-09T14:28:45;4.95;;;3.13;;
45011;SDS011;63444;48.148;11.542;2023-07-09T14:31:44;3.97;;;3.28;;
45011;SDS011;63444;48.148;11.542;2023-07-09T14:34:36;5.93;;;2.90;;
45011;SDS011;63444;48.148;11.542;2023-07-09T14:36:58;5.88;;;3.08;;
45011;SDS011;63444;48.148;11.542;2023-07-09T14:39:28;5.78;;;3.53;;
45011;SDS011;63444;48.148;11.542;2023-07-09T14:41:54;3.83;;;3.08;;
45011;SDS011;63444;48.148;11.542;2023-07-09T14:44:24;5.63;;;3.50;;
45011;SDS011;63444;48.148;11.542;2023-07-09T14:46:50;8.50;;;3.15;;
45011;SDS011;63444;48.148;11.542;2023-07-09T14:49:17;5.07;;;3.05;;
45011;SDS011;63444;48.148;11.542;2023-07-09T14:51:44;4.80;;;3.00;;
45011;SDS011;63444;48.148;11.542;2023-07-09T14:54:31;3.40;;;3.10;;
45011;SDS011;63444;48.148;11.542;2023-07-09T14:56:56;6.63;;;3.60;;
45011;SDS011;63444;48.148;11.542;2023-07-09T14:59:23;5.45;;;3.22;;
45011;SDS011;63444;48.148;11.542;2023-07-09T15:01:49;6.85;;;3.20;;
45011;SDS011;63444;48.148;11.542;2023-07-09T15:04:24;4.93;;;3.15;;
45011;SDS011;63444;48.148;11.542;2023-07-09T15:06:53;5.15;;;2.97;;
45011;SDS011;63444;48.148;11.542;2023-07-09T15:09:20;4.95;;;3.20;;
45011;SDS011;63444;48.148;11.542;2023-07-09T15:11:48;4.45;;;3.00;;
45011;SDS011;63444;48.148;11.542;2023-07-09T15:14:15;5.10;;;3.05;;
45011;SDS011;63444;48.148;11.542;2023-07-09T15:16:41;3.22;;;2.92;;
45011;SDS011;63444;48.148;11.542;2023-07-09T15:19:13;6.22;;;3.38;;
45011;SDS011;63444;48.148;11.542;2023-07-09T15:21:40;4.65;;;3.25;;